createdAt,value
2022-11-28T00:01:39.022Z,6.80
2022-11-28T00:04:08.004Z,6.80
2022-11-28T00:06:38.882Z,6.80
2022-11-28T00:09:07.948Z,6.60
2022-11-28T00:11:37.457Z,6.90
2022-11-28T00:14:05.774Z,6.70
2022-11-28T00:16:34.014Z,6.80
2022-11-28T00:19:03.031Z,6.80
2022-11-28T00:21:31.785Z,6.80
2022-11-28T00:24:00.856Z,6.80
2022-11-28T00:26:31.764Z,6.70
2022-11-28T00:29:02.129Z,6.70
2022-11-28T00:31:32.944Z,6.80
2022-11-28T00:34:02.897Z,6.70
2022-11-28T00:36:31.855Z,6.70
2022-11-28T00:38:59.864Z,6.70
2022-11-28T00:41:31.080Z,6.70
2022-11-28T00:44:00.749Z,6.70
2022-11-28T00:46:29.499Z,6.90
2022-11-28T00:48:59.079Z,6.90
2022-11-28T00:51:29.677Z,6.90
2022-11-28T00:54:01.948Z,6.90
2022-11-28T00:56:31.557Z,6.90
2022-11-28T00:59:01.384Z,7.00
2022-11-28T01:01:31.710Z,6.90
2022-11-28T01:04:02.695Z,7.00
2022-11-28T01:06:32.945Z,6.90
2022-11-28T01:09:02.356Z,6.80
2022-11-28T01:11:31.462Z,6.90
2022-11-28T01:14:02.994Z,6.90
2022-11-28T01:16:31.474Z,6.80
2022-11-28T01:19:00.105Z,6.90
2022-11-28T01:21:28.760Z,6.90
2022-11-28T01:23:56.908Z,6.90
2022-11-28T01:26:27.812Z,6.80
2022-11-28T01:28:56.623Z,6.80
2022-11-28T01:31:28.634Z,6.70
2022-11-28T01:33:57.607Z,6.70
2022-11-28T01:36:26.527Z,6.70
2022-11-28T01:38:54.817Z,6.80
2022-11-28T01:41:24.652Z,6.80
2022-11-28T01:44:02.015Z,6.90
2022-11-28T01:46:32.229Z,6.80
2022-11-28T01:49:05.970Z,6.80
2022-11-28T01:51:34.796Z,6.90
2022-11-28T01:54:04.033Z,6.80
2022-11-28T01:56:41.263Z,6.80
2022-11-28T01:59:12.800Z,6.80
2022-11-28T02:01:43.817Z,6.70
2022-11-28T02:04:13.672Z,6.80
2022-11-28T02:06:42.855Z,6.90
2022-11-28T02:09:12.498Z,6.90
2022-11-28T02:12:08.244Z,6.80
2022-11-28T02:15:04.537Z,6.80
2022-11-28T02:17:45.170Z,6.80
2022-11-28T02:20:41.338Z,6.80
2022-11-28T02:23:14.858Z,6.80
2022-11-28T02:26:20.960Z,6.90
2022-11-28T02:29:12.863Z,6.80
2022-11-28T02:32:07.280Z,6.90
2022-11-28T02:34:45.631Z,6.90
2022-11-28T02:37:23.833Z,6.90
2022-11-28T02:39:57.839Z,6.90
2022-11-28T02:42:33.818Z,6.90
2022-11-28T02:45:10.453Z,6.90
2022-11-28T02:47:46.530Z,7.00
2022-11-28T02:50:20.194Z,7.00
2022-11-28T02:52:51.408Z,7.00
2022-11-28T02:55:19.752Z,7.00
2022-11-28T02:57:50.387Z,7.00
2022-11-28T03:00:27.958Z,7.00
2022-11-28T03:03:11.425Z,6.90
2022-11-28T03:05:47.230Z,7.00
2022-11-28T03:08:31.678Z,7.20
2022-11-28T03:11:07.029Z,7.00
2022-11-28T03:13:42.048Z,7.00
2022-11-28T03:16:23.670Z,7.00
2022-11-28T03:19:02.306Z,7.00
2022-11-28T03:21:39.300Z,7.00
2022-11-28T03:24:13.935Z,6.90
2022-11-28T03:26:48.594Z,7.00
2022-11-28T03:29:21.949Z,7.00
2022-11-28T03:31:55.004Z,7.00
2022-11-28T03:34:29.050Z,6.90
2022-11-28T03:37:02.599Z,6.90
2022-11-28T03:39:34.756Z,6.90
2022-11-28T03:42:08.638Z,6.90
2022-11-28T03:44:41.223Z,6.80
2022-11-28T03:47:11.594Z,6.90
2022-11-28T03:49:44.967Z,6.80
2022-11-28T03:52:19.680Z,6.70
2022-11-28T03:54:51.887Z,6.70
2022-11-28T03:57:26.022Z,6.70
2022-11-28T03:59:55.896Z,6.80
2022-11-28T04:02:31.346Z,6.70
2022-11-28T04:05:06.242Z,6.70
2022-11-28T04:07:41.039Z,6.70
2022-11-28T04:10:16.893Z,6.60
2022-11-28T04:12:54.319Z,6.60
2022-11-28T04:15:28.342Z,6.60
2022-11-28T04:18:00.772Z,6.80
2022-11-28T04:20:35.296Z,6.90
2022-11-28T04:23:10.069Z,6.90
2022-11-28T04:25:42.611Z,6.90
2022-11-28T04:28:15.964Z,6.90
2022-11-28T04:30:45.941Z,6.90
2022-11-28T04:33:16.991Z,6.80
2022-11-28T04:35:51.531Z,6.90
2022-11-28T04:38:20.297Z,7.00
2022-11-28T04:40:52.883Z,7.10
2022-11-28T04:43:25.505Z,7.10
2022-11-28T04:45:57.377Z,7.10
2022-11-28T04:48:29.870Z,7.20
2022-11-28T04:51:10.593Z,7.30
2022-11-28T04:53:44.855Z,7.30
2022-11-28T04:56:17.854Z,7.40
2022-11-28T04:58:50.050Z,7.40
2022-11-28T05:01:22.923Z,7.50
2022-11-28T05:03:51.381Z,7.50
2022-11-28T05:06:29.594Z,7.50
2022-11-28T05:08:57.851Z,7.40
2022-11-28T05:11:26.459Z,7.40
2022-11-28T05:13:54.781Z,7.40
2022-11-28T05:16:24.758Z,7.30
2022-11-28T05:18:52.824Z,7.40
2022-11-28T05:21:21.051Z,7.30
2022-11-28T05:23:50.508Z,7.40
2022-11-28T05:26:21.157Z,7.50
2022-11-28T05:28:51.430Z,7.40
2022-11-28T05:31:21.034Z,7.50
2022-11-28T05:33:49.353Z,7.50
2022-11-28T05:36:19.019Z,7.60
2022-11-28T05:38:47.545Z,7.50
2022-11-28T05:41:22.816Z,7.50
2022-11-28T05:43:51.303Z,7.50
2022-11-28T05:46:19.925Z,7.50
2022-11-28T05:48:48.359Z,7.50
2022-11-28T05:51:16.554Z,7.50
2022-11-28T05:53:44.888Z,7.50
2022-11-28T05:56:15.431Z,7.40
2022-11-28T05:58:46.226Z,7.40
2022-11-28T06:01:16.601Z,7.40
2022-11-28T06:03:44.928Z,7.50
2022-11-28T06:06:15.405Z,7.40
2022-11-28T06:08:45.636Z,7.40
2022-11-28T06:11:15.149Z,7.50
2022-11-28T06:13:45.789Z,7.50
2022-11-28T06:16:16.288Z,7.40
2022-11-28T06:18:44.869Z,7.40
2022-11-28T06:21:14.345Z,7.30
2022-11-28T06:23:43.120Z,7.40
2022-11-28T06:26:12.886Z,7.30
2022-11-28T06:28:41.628Z,7.30
2022-11-28T06:31:13.711Z,7.20
2022-11-28T06:33:42.455Z,7.10
2022-11-28T06:36:11.673Z,7.20
2022-11-28T06:38:39.763Z,7.30
2022-11-28T06:41:10.919Z,7.30
2022-11-28T06:43:39.104Z,7.20
2022-11-28T06:46:09.893Z,7.20
2022-11-28T06:48:41.485Z,7.30
2022-11-28T06:51:09.703Z,7.40
2022-11-28T06:53:37.965Z,7.50
2022-11-28T06:56:07.124Z,7.50
2022-11-28T06:58:35.922Z,7.40
2022-11-28T07:01:08.378Z,7.50
2022-11-28T07:03:36.844Z,7.50
2022-11-28T07:06:07.260Z,7.50
2022-11-28T07:08:35.945Z,7.60
2022-11-28T07:11:12.201Z,7.60
2022-11-28T07:13:40.739Z,7.60
2022-11-28T07:16:14.329Z,7.60
2022-11-28T07:18:42.670Z,7.60
2022-11-28T07:21:12.697Z,7.50
2022-11-28T07:23:40.921Z,7.50
2022-11-28T07:26:09.272Z,7.50
2022-11-28T07:28:37.537Z,7.60
2022-11-28T07:31:07.894Z,7.60
2022-11-28T07:33:36.768Z,7.50
2022-11-28T07:36:06.671Z,7.50
2022-11-28T07:38:36.218Z,7.40
2022-11-28T07:41:05.652Z,7.40
2022-11-28T07:43:34.067Z,7.40
2022-11-28T07:46:06.079Z,7.40
2022-11-28T07:48:34.598Z,7.40
2022-11-28T07:51:07.666Z,7.40
2022-11-28T07:53:37.465Z,7.20
2022-11-28T07:56:06.505Z,7.20
2022-11-28T07:58:36.232Z,7.30
2022-11-28T08:01:10.211Z,7.30
2022-11-28T08:03:38.482Z,7.30
2022-11-28T08:06:07.602Z,7.40
2022-11-28T08:08:37.344Z,7.40
2022-11-28T08:11:08.390Z,7.20
2022-11-28T08:13:38.020Z,7.40
2022-11-28T08:16:07.148Z,7.40
2022-11-28T08:18:35.939Z,7.50
2022-11-28T08:21:06.171Z,7.50
2022-11-28T08:23:37.022Z,7.50
2022-11-28T08:26:06.802Z,7.50
2022-11-28T08:28:35.487Z,7.50
2022-11-28T08:31:10.788Z,7.60
2022-11-28T08:33:40.594Z,7.60
2022-11-28T08:36:09.947Z,7.50
2022-11-28T08:38:40.423Z,7.60
2022-11-28T08:41:12.224Z,7.60
2022-11-28T08:43:41.007Z,7.60
2022-11-28T08:46:12.900Z,7.50
2022-11-28T08:48:42.541Z,7.60
2022-11-28T08:51:14.274Z,7.60
2022-11-28T08:53:48.671Z,7.60
2022-11-28T08:56:17.829Z,7.80
2022-11-28T08:58:46.201Z,7.80
2022-11-28T09:01:19.149Z,7.80
2022-11-28T09:03:48.042Z,7.80
2022-11-28T09:06:17.129Z,7.80
2022-11-28T09:08:46.744Z,7.80
2022-11-28T09:11:17.396Z,7.90
2022-11-28T09:13:46.392Z,7.90
2022-11-28T09:16:15.732Z,7.90
2022-11-28T09:18:44.299Z,7.90
2022-11-28T09:21:15.713Z,7.90
2022-11-28T09:23:46.042Z,7.90
2022-11-28T09:26:16.633Z,7.90
2022-11-28T09:28:46.064Z,8.00
2022-11-28T09:31:15.166Z,8.10
2022-11-28T09:33:43.865Z,8.10
2022-11-28T09:36:14.320Z,8.10
2022-11-28T09:38:42.777Z,8.20
2022-11-28T09:41:32.690Z,8.30
2022-11-28T09:44:04.352Z,8.30
2022-11-28T09:46:36.200Z,8.50
2022-11-28T09:49:11.612Z,8.40
2022-11-28T09:51:49.636Z,8.40
2022-11-28T09:54:22.277Z,8.40
2022-11-28T09:56:52.538Z,8.40
2022-11-28T09:59:26.062Z,8.50
2022-11-28T10:02:03.995Z,8.50
2022-11-28T10:04:42.081Z,8.50
2022-11-28T10:07:27.352Z,8.50
2022-11-28T10:10:04.771Z,8.50
2022-11-28T10:12:46.742Z,8.50
2022-11-28T10:15:29.421Z,8.50
2022-11-28T10:18:08.327Z,8.50
2022-11-28T10:20:40.658Z,8.60
2022-11-28T10:23:17.442Z,8.50
2022-11-28T10:25:50.054Z,8.60
2022-11-28T10:28:24.463Z,8.60
2022-11-28T10:31:03.282Z,8.50
2022-11-28T10:33:39.409Z,8.60
2022-11-28T10:36:09.031Z,8.70
2022-11-28T10:38:37.667Z,8.70
2022-11-28T10:41:14.968Z,8.80
2022-11-28T10:43:50.666Z,8.80
2022-11-28T10:46:43.909Z,8.80
2022-11-28T10:49:27.640Z,8.70
2022-11-28T10:52:04.641Z,8.90
2022-11-28T10:54:51.952Z,8.80
2022-11-28T10:57:23.636Z,8.90
2022-11-28T11:00:04.146Z,8.80
2022-11-28T11:02:39.092Z,8.90
2022-11-28T11:05:13.141Z,9.00
2022-11-28T11:07:48.708Z,9.10
2022-11-28T11:10:19.441Z,9.10
2022-11-28T11:12:48.463Z,9.20
2022-11-28T11:15:22.578Z,9.20
2022-11-28T11:17:51.947Z,9.10
2022-11-28T11:20:30.579Z,9.20
2022-11-28T11:22:59.863Z,9.20
2022-11-28T11:25:29.687Z,9.20
2022-11-28T11:28:01.857Z,9.30
2022-11-28T11:30:34.403Z,9.30
2022-11-28T11:33:05.748Z,9.40
2022-11-28T11:35:37.182Z,9.40
2022-11-28T11:38:19.657Z,9.30
2022-11-28T11:40:48.376Z,9.30
2022-11-28T11:43:28.600Z,9.20
2022-11-28T11:46:09.889Z,9.10
2022-11-28T11:48:40.547Z,9.10
2022-11-28T11:51:21.340Z,9.10
2022-11-28T11:53:49.809Z,9.20
2022-11-28T11:56:18.829Z,9.20
2022-11-28T11:58:50.838Z,9.10
2022-11-28T12:01:22.776Z,9.10
2022-11-28T12:03:56.302Z,9.20
2022-11-28T12:06:29.304Z,9.10
2022-11-28T12:09:09.336Z,9.10
2022-11-28T12:14:32.344Z,9.10
2022-11-28T12:20:27.839Z,9.20
2022-11-28T12:23:01.702Z,9.30
2022-11-28T12:25:35.203Z,9.30
2022-11-28T12:28:14.384Z,9.00
2022-11-28T12:30:57.269Z,8.90
2022-11-28T12:33:40.194Z,9.10
2022-11-28T12:36:17.965Z,9.20
2022-11-28T12:39:00.333Z,9.10
2022-11-28T12:41:54.905Z,9.20
2022-11-28T12:44:31.791Z,9.20
2022-11-28T12:47:09.542Z,9.20
2022-11-28T12:49:49.689Z,9.30
2022-11-28T12:52:31.933Z,9.30
2022-11-28T12:55:19.785Z,9.30
2022-11-28T12:57:55.622Z,9.30
2022-11-28T13:00:26.928Z,9.30
2022-11-28T13:03:07.879Z,9.30
2022-11-28T13:05:46.257Z,9.20
2022-11-28T13:08:27.135Z,9.30
2022-11-28T13:11:06.103Z,9.40
2022-11-28T13:13:39.777Z,9.20
2022-11-28T13:16:22.059Z,9.30
2022-11-28T13:18:58.401Z,9.40
2022-11-28T13:21:37.632Z,9.30
2022-11-28T13:24:14.663Z,9.20
2022-11-28T13:26:52.552Z,9.10
2022-11-28T13:29:30.457Z,9.20
2022-11-28T13:32:06.358Z,9.30
2022-11-28T13:34:35.624Z,9.30
2022-11-28T13:40:13.578Z,9.30
2022-11-28T13:43:04.090Z,9.20
2022-11-28T13:45:39.132Z,9.30
2022-11-28T13:51:31.854Z,9.30
2022-11-28T13:54:49.530Z,9.30
2022-11-28T13:57:39.892Z,9.30
2022-11-28T14:00:22.495Z,9.30
2022-11-28T14:02:54.157Z,9.40
2022-11-28T14:05:35.579Z,9.40
2022-11-28T14:08:05.258Z,9.30
2022-11-28T14:10:48.454Z,9.20
2022-11-28T14:13:34.008Z,9.30
2022-11-28T14:16:14.509Z,9.30
2022-11-28T14:19:05.900Z,9.40
2022-11-28T14:21:46.921Z,9.40
2022-11-28T14:24:25.458Z,9.40
2022-11-28T14:27:00.587Z,9.30
2022-11-28T14:29:35.276Z,9.40
2022-11-28T14:32:29.078Z,9.40
2022-11-28T14:34:52.417Z,9.40
2022-11-28T14:37:59.562Z,9.30
2022-11-28T14:41:04.418Z,9.30
2022-11-28T14:43:33.860Z,9.30
2022-11-28T14:46:31.716Z,9.30
2022-11-28T14:49:20.638Z,9.30
2022-11-28T14:52:37.659Z,9.30
2022-11-28T14:54:56.912Z,9.20
2022-11-28T14:57:27.910Z,9.20
2022-11-28T14:59:58.036Z,9.30
2022-11-28T15:02:46.092Z,9.20
2022-11-28T15:05:46.307Z,9.30
2022-11-28T15:08:33.364Z,9.20
2022-11-28T15:11:13.047Z,9.20
2022-11-28T15:13:53.945Z,9.20
2022-11-28T15:16:24.458Z,9.10
2022-11-28T15:18:59.422Z,9.20
2022-11-28T15:21:27.578Z,9.10
2022-11-28T15:23:56.540Z,9.10
2022-11-28T15:26:29.658Z,9.10
2022-11-28T15:29:11.409Z,9.00
2022-11-28T15:31:44.172Z,9.00
2022-11-28T15:34:22.685Z,9.00
2022-11-28T15:36:52.696Z,9.00
2022-11-28T15:39:28.603Z,9.00
2022-11-28T15:41:58.327Z,9.00
2022-11-28T15:44:26.600Z,8.90
2022-11-28T15:46:55.246Z,9.00
2022-11-28T15:49:27.019Z,8.90
2022-11-28T15:51:56.576Z,8.90
2022-11-28T15:54:34.371Z,9.00
2022-11-28T15:57:03.486Z,8.90
2022-11-28T15:59:31.979Z,8.90
2022-11-28T16:02:04.581Z,8.90
2022-11-28T16:04:34.269Z,8.80
2022-11-28T16:07:03.104Z,8.70
2022-11-28T16:09:35.147Z,8.70
2022-11-28T16:12:05.157Z,8.70
2022-11-28T16:14:36.175Z,8.70
2022-11-28T16:17:09.740Z,8.60
2022-11-28T16:19:39.431Z,8.70
2022-11-28T16:22:10.752Z,8.80
2022-11-28T16:24:46.351Z,8.80
2022-11-28T16:27:29.790Z,8.70
2022-11-28T16:29:58.333Z,8.80
2022-11-28T16:32:38.330Z,8.70
2022-11-28T16:35:12.681Z,8.70
2022-11-28T16:37:41.216Z,8.80
2022-11-28T16:40:17.138Z,8.80
2022-11-28T16:42:53.644Z,8.80
2022-11-28T16:45:25.329Z,8.70
2022-11-28T16:48:02.058Z,8.70
2022-11-28T16:50:32.601Z,8.70
2022-11-28T16:53:00.824Z,8.80
2022-11-28T16:55:44.393Z,8.80
2022-11-28T16:58:16.238Z,8.80
2022-11-28T17:00:47.844Z,8.80
2022-11-28T17:03:39.385Z,8.80
2022-11-28T17:06:21.727Z,8.80
2022-11-28T17:08:50.707Z,8.70
2022-11-28T17:11:22.944Z,8.70
2022-11-28T17:13:52.423Z,8.80
2022-11-28T17:16:24.172Z,8.70
2022-11-28T17:18:52.907Z,8.60
2022-11-28T17:21:32.311Z,8.60
2022-11-28T17:24:01.016Z,8.60
2022-11-28T17:26:30.361Z,8.50
2022-11-28T17:28:59.315Z,8.60
2022-11-28T17:31:28.394Z,8.60
2022-11-28T17:33:56.617Z,8.60
2022-11-28T17:36:26.265Z,8.50
2022-11-28T17:38:54.490Z,8.60
2022-11-28T17:41:23.316Z,8.50
2022-11-28T17:43:51.493Z,8.50
2022-11-28T17:46:22.590Z,8.50
2022-11-28T17:48:51.001Z,8.50
2022-11-28T17:51:20.322Z,8.50
2022-11-28T17:53:50.713Z,8.50
2022-11-28T17:56:18.866Z,8.50
2022-11-28T17:58:47.096Z,8.50
2022-11-28T18:01:19.497Z,8.50
2022-11-28T18:03:47.653Z,8.50
2022-11-28T18:06:17.773Z,8.60
2022-11-28T18:08:46.410Z,8.50
2022-11-28T18:11:16.816Z,8.50
2022-11-28T18:13:45.418Z,8.60
2022-11-28T18:16:15.414Z,8.60
2022-11-28T18:18:43.624Z,8.60
2022-11-28T18:21:12.354Z,8.70
2022-11-28T18:23:40.994Z,8.70
2022-11-28T18:26:09.668Z,8.60
2022-11-28T18:28:39.548Z,8.50
2022-11-28T18:31:12.625Z,8.50
2022-11-28T18:33:41.652Z,8.40
2022-11-28T18:36:11.468Z,8.40
2022-11-28T18:38:39.949Z,8.40
2022-11-28T18:41:10.642Z,8.40
2022-11-28T18:43:41.368Z,8.30
2022-11-28T18:46:11.649Z,8.40
2022-11-28T18:48:41.607Z,8.40
2022-11-28T18:51:14.015Z,8.40
2022-11-28T18:53:42.719Z,8.30
2022-11-28T18:56:11.815Z,8.30
2022-11-28T18:58:43.540Z,8.30
2022-11-28T19:01:12.862Z,8.30
2022-11-28T19:03:41.353Z,8.20
2022-11-28T19:06:11.748Z,8.20
2022-11-28T19:08:40.878Z,8.30
2022-11-28T19:11:14.384Z,8.30
2022-11-28T19:13:45.471Z,8.30
2022-11-28T19:16:15.904Z,8.30
2022-11-28T19:18:44.784Z,8.30
2022-11-28T19:21:14.694Z,8.20
2022-11-28T19:23:43.034Z,8.20
2022-11-28T19:26:13.292Z,8.20
2022-11-28T19:28:43.819Z,8.30
2022-11-28T19:31:16.495Z,8.30
2022-11-28T19:33:45.385Z,8.30
2022-11-28T19:36:16.130Z,8.30
2022-11-28T19:38:44.354Z,8.30
2022-11-28T19:41:14.340Z,8.30
2022-11-28T19:43:44.998Z,8.30
2022-11-28T19:46:14.431Z,8.20
2022-11-28T19:48:43.503Z,8.20
2022-11-28T19:51:13.559Z,8.20
2022-11-28T19:53:44.130Z,8.20
2022-11-28T19:56:15.061Z,8.20
2022-11-28T19:58:44.977Z,8.20
2022-11-28T20:01:15.714Z,8.30
2022-11-28T20:03:45.554Z,8.30
2022-11-28T20:06:16.428Z,8.20
2022-11-28T20:08:45.177Z,8.20
2022-11-28T20:11:15.398Z,8.30
2022-11-28T20:13:45.837Z,8.30
2022-11-28T20:16:17.132Z,8.30
2022-11-28T20:18:46.259Z,8.40
2022-11-28T20:21:15.661Z,8.30
2022-11-28T20:23:45.473Z,8.30
2022-11-28T20:26:15.382Z,8.30
2022-11-28T20:28:46.316Z,8.30
2022-11-28T20:31:20.179Z,8.40
2022-11-28T20:33:48.792Z,8.30
2022-11-28T20:36:18.758Z,8.30
2022-11-28T20:38:46.879Z,8.30
2022-11-28T20:41:16.291Z,8.30
2022-11-28T20:43:46.278Z,8.30
2022-11-28T20:46:15.997Z,8.20
2022-11-28T20:48:44.514Z,8.10
2022-11-28T20:51:14.683Z,8.20
2022-11-28T20:53:42.808Z,8.20
2022-11-28T20:56:13.577Z,8.10
2022-11-28T20:58:42.163Z,8.20
2022-11-28T21:01:15.318Z,8.10
2022-11-28T21:03:43.584Z,8.10
2022-11-28T21:06:12.675Z,8.00
2022-11-28T21:08:41.301Z,8.10
2022-11-28T21:11:10.983Z,8.10
2022-11-28T21:13:39.367Z,8.20
2022-11-28T21:16:08.836Z,8.10
2022-11-28T21:18:39.897Z,8.10
2022-11-28T21:21:09.467Z,8.20
2022-11-28T21:23:38.744Z,8.10
2022-11-28T21:26:08.335Z,8.10
2022-11-28T21:28:37.683Z,8.10
2022-11-28T21:31:07.462Z,8.10
2022-11-28T21:33:35.583Z,8.10
2022-11-28T21:36:06.741Z,8.00
2022-11-28T21:38:36.023Z,8.00
2022-11-28T21:41:04.250Z,8.00
2022-11-28T21:43:32.486Z,8.00
2022-11-28T21:46:03.447Z,8.00
2022-11-28T21:48:33.013Z,8.00
2022-11-28T21:51:02.197Z,8.10
2022-11-28T21:53:32.836Z,8.10
2022-11-28T21:56:01.288Z,8.20
2022-11-28T21:58:30.614Z,8.00
2022-11-28T22:00:59.502Z,8.00
2022-11-28T22:03:28.901Z,8.00
2022-11-28T22:06:01.899Z,7.90
2022-11-28T22:08:32.507Z,7.90
2022-11-28T22:11:04.797Z,7.90
2022-11-28T22:13:33.363Z,8.00
2022-11-28T22:16:02.032Z,8.10
2022-11-28T22:18:30.641Z,8.00
2022-11-28T22:21:06.526Z,8.00
2022-11-28T22:23:40.637Z,8.00
2022-11-28T22:26:09.610Z,8.00
2022-11-28T22:28:38.732Z,8.00
2022-11-28T22:31:10.453Z,8.10
2022-11-28T22:33:38.882Z,8.00
2022-11-28T22:36:08.314Z,8.00
2022-11-28T22:38:36.358Z,8.00
2022-11-28T22:41:10.086Z,8.00
2022-11-28T22:43:38.692Z,8.00
2022-11-28T22:46:07.653Z,8.00
2022-11-28T22:48:36.547Z,8.00
2022-11-28T22:51:08.221Z,7.90
2022-11-28T22:53:36.372Z,7.90
2022-11-28T22:56:05.676Z,7.90
2022-11-28T22:58:42.324Z,7.90
2022-11-28T23:01:12.724Z,7.90
2022-11-28T23:03:41.093Z,8.00
2022-11-28T23:06:11.612Z,8.00
2022-11-28T23:08:40.207Z,8.10
2022-11-28T23:11:09.678Z,7.90
2022-11-28T23:13:39.946Z,8.00
2022-11-28T23:16:13.083Z,8.00
2022-11-28T23:18:42.294Z,8.10
2022-11-28T23:21:10.950Z,8.00
2022-11-28T23:23:39.847Z,8.10
2022-11-28T23:26:10.822Z,8.10
2022-11-28T23:28:40.439Z,8.10
2022-11-28T23:31:10.508Z,8.10
2022-11-28T23:33:39.079Z,8.10
2022-11-28T23:36:17.946Z,8.10
2022-11-28T23:38:47.308Z,8.00
2022-11-28T23:41:16.073Z,8.00
2022-11-28T23:43:45.897Z,8.00
2022-11-28T23:46:15.726Z,8.00
2022-11-28T23:48:44.320Z,8.00
2022-11-28T23:51:13.852Z,8.10
2022-11-28T23:53:43.052Z,8.00
2022-11-28T23:56:13.169Z,8.00
2022-11-28T23:58:42.109Z,8.00
